Hartford, Connecticut
Current Conditions -  °F | °C
As of 12:53 AM on Saturday 20 Dec 2014 (Local Time) from KHFD Reporting Station
Clear Clear  
Wind Chill: -6°   Ceiling: Unl
Heat Index: -2°   Visibility: 10mi
Dew Point: -7°   Wind: 7mph
Humidity: 69%   Direction: 340°NNW
Pressure: 30.19"   Gusts: NA
Location:  41.76°N, 72.67°W
Report Text: KHFD 200553Z AUTO 34006KT 10SM CLR M02/M07 A3019 RMK AO2 SLP222 T10171067 10000 21017 51016
Loading
Personal Weather Stations






























Interactive Weather Map New forecast layout! Learn more

10-Day Weather Forecast

Advertisements
Track Severe Weather on mobile